Time;durP1;ratioP1;P1;durP2;ratioP2;P2;SDS_P1;SDS_P2;PMS_P1;PMS_P2;Temp;Humidity;BMP_temperature;BMP_pressure;BME280_temperature;BME280_humidity;BME280_pressure;Samples;Min_cycle;Max_cycle;Signal;HPM_P1;HPM_P2
2022/07/28 00:00:49;;;;;;;2.10;1.63;;;;;;;23.50;40.87;97397.03;5061146;28;20183;-68
2022/07/28 00:03:15;;;;;;;3.40;1.73;;;;;;;23.55;40.99;97397.19;5054472;28;20190;-69
2022/07/28 00:05:40;;;;;;;3.30;2.00;;;;;;;23.53;41.16;97393.91;5058846;28;20206;-67
2022/07/28 00:08:06;;;;;;;4.07;1.90;;;;;;;23.44;41.37;97388.09;5054849;28;20237;-68
2022/07/28 00:10:31;;;;;;;7.90;2.00;;;;;;;23.47;41.12;97384.97;5055132;28;20222;-68
2022/07/28 00:12:58;;;;;;;3.77;2.00;;;;;;;23.50;41.21;97381.81;5067072;28;20415;-68
2022/07/28 00:15:24;;;;;;;2.67;1.90;;;;;;;23.50;41.18;97389.03;5054205;28;21018;-68
2022/07/28 00:17:50;;;;;;;4.97;2.40;;;;;;;23.55;41.17;97375.78;5060271;28;20507;-68
2022/07/28 00:20:15;;;;;;;3.40;1.67;;;;;;;23.56;40.29;97377.41;5054973;28;20413;-68
2022/07/28 00:22:42;;;;;;;4.93;1.70;;;;;;;23.48;41.49;97381.25;5058688;28;20813;-68
2022/07/28 00:25:07;;;;;;;9.20;2.00;;;;;;;23.38;41.95;97375.63;5070615;28;20421;-68
2022/07/28 00:27:32;;;;;;;5.13;2.10;;;;;;;23.37;42.00;97369.47;5062816;28;20409;-68
2022/07/28 00:29:58;;;;;;;3.80;2.03;;;;;;;23.35;41.77;97368.88;5057941;28;20333;-68
2022/07/28 00:32:23;;;;;;;2.60;1.93;;;;;;;23.16;42.44;97363.63;5060830;28;20288;-68
2022/07/28 00:34:50;;;;;;;3.50;1.80;;;;;;;23.11;42.78;97363.47;5062021;28;20206;-69
2022/07/28 00:37:18;;;;;;;4.63;1.83;;;;;;;23.09;42.67;97362.88;5054248;28;20298;-69
2022/07/28 00:39:43;;;;;;;5.87;1.90;;;;;;;23.01;42.08;97366.69;5064833;28;20435;-69
2022/07/28 00:42:09;;;;;;;3.27;1.90;;;;;;;22.99;41.90;97370.66;5060550;28;20802;-69
2022/07/28 00:44:34;;;;;;;4.33;2.40;;;;;;;22.92;41.84;97368.06;5060970;28;20179;-70
2022/07/28 00:47:00;;;;;;;3.60;1.97;;;;;;;22.89;41.68;97373.88;5054032;28;20225;-69
2022/07/28 00:49:25;;;;;;;2.97;2.00;;;;;;;22.83;42.06;97372.91;5062971;28;20294;-68
2022/07/28 00:51:52;;;;;;;5.93;1.93;;;;;;;22.84;42.38;97369.22;5064981;28;20176;-69
2022/07/28 00:54:17;;;;;;;6.30;2.57;;;;;;;22.83;42.80;97370.25;5044438;28;20450;-68
2022/07/28 00:56:42;;;;;;;4.30;2.07;;;;;;;22.82;42.74;97373.97;5061252;28;20449;-69
2022/07/28 00:59:08;;;;;;;3.67;2.53;;;;;;;22.73;43.08;97369.19;5063450;28;20198;-68
2022/07/28 01:01:34;;;;;;;3.23;2.47;;;;;;;22.68;42.92;97367.19;5057234;28;20178;-67
2022/07/28 01:04:01;;;;;;;4.07;2.70;;;;;;;22.65;42.81;97359.63;5062497;28;20417;-69
2022/07/28 01:06:34;;;;;;;2.50;1.80;;;;;;;22.70;42.82;97365.91;5036182;28;20183;-68
2022/07/28 01:09:18;;;;;;;5.00;2.23;;;;;;;22.66;42.70;97358.59;5068182;28;20429;-69
2022/07/28 01:12:21;;;;;;;3.67;2.20;;;;;;;22.59;42.90;97356.00;5053648;28;20452;-69
2022/07/28 01:14:54;;;;;;;5.33;2.10;;;;;;;22.54;43.11;97359.34;5045828;28;20784;-68
2022/07/28 01:17:44;;;;;;;4.87;2.00;;;;;;;22.45;43.60;97358.03;5039452;28;20464;-68
2022/07/28 01:20:30;;;;;;;5.93;2.43;;;;;;;22.38;43.53;97350.06;5039521;28;20445;-67
2022/07/28 01:23:11;;;;;;;2.93;2.00;;;;;;;22.38;43.61;97351.94;5036191;28;20497;-68
2022/07/28 01:26:05;;;;;;;4.50;2.20;;;;;;;22.33;43.69;97346.44;5060205;28;20432;-68
2022/07/28 01:28:49;;;;;;;2.90;2.03;;;;;;;22.30;43.44;97339.69;5034768;28;20433;-67
2022/07/28 01:31:22;;;;;;;5.53;1.90;;;;;;;22.28;43.78;97343.66;5056690;28;20412;-68
2022/07/28 01:33:51;;;;;;;2.17;1.93;;;;;;;22.28;43.61;97341.78;5033450;28;20438;-68
2022/07/28 01:36:18;;;;;;;4.03;2.27;;;;;;;22.28;43.52;97332.97;5039114;28;20421;-68
2022/07/28 01:38:46;;;;;;;4.33;2.27;;;;;;;22.19;43.74;97341.25;5040757;28;20464;-68
2022/07/28 01:41:24;;;;;;;2.83;2.13;;;;;;;22.18;43.76;97338.81;5016900;28;20425;-68
2022/07/28 01:43:59;;;;;;;3.00;1.97;;;;;;;22.12;44.01;97348.53;5044031;28;20480;-68
2022/07/28 01:46:26;;;;;;;3.80;2.07;;;;;;;22.11;43.76;97346.09;5035832;28;20453;-69
2022/07/28 01:48:52;;;;;;;2.70;1.80;;;;;;;22.11;43.63;97338.09;5045173;28;20490;-68
2022/07/28 01:51:19;;;;;;;3.33;2.20;;;;;;;22.07;43.88;97340.38;5037557;28;20416;-69
2022/07/28 01:53:46;;;;;;;5.50;2.33;;;;;;;21.97;44.34;97338.25;5037801;28;20441;-68
2022/07/28 01:56:12;;;;;;;3.83;2.03;;;;;;;21.97;44.04;97335.59;5041836;28;20421;-69
2022/07/28 01:58:38;;;;;;;2.43;2.00;;;;;;;21.99;43.98;97338.00;5022141;28;20449;-68
2022/07/28 02:01:04;;;;;;;3.80;2.23;;;;;;;21.93;44.27;97326.38;5057594;28;20421;-68
2022/07/28 02:03:31;;;;;;;2.10;1.90;;;;;;;21.85;44.47;97326.69;5054158;28;20225;-69
2022/07/28 02:06:01;;;;;;;2.80;2.00;;;;;;;21.84;44.53;97323.19;5056226;28;20782;-68
2022/07/28 02:08:29;;;;;;;4.87;2.00;;;;;;;21.88;44.42;97320.88;5034561;28;20430;-69
2022/07/28 02:13:40;;;;;;;2.20;2.00;;;;;;;21.83;44.62;97323.44;5038864;28;20433;-69
2022/07/28 02:16:07;;;;;;;8.70;2.40;;;;;;;21.78;44.76;97318.75;5024502;28;20788;-67
2022/07/28 02:18:35;;;;;;;5.43;2.23;;;;;;;21.77;44.85;97315.25;5039606;28;20468;-68
2022/07/28 02:21:01;;;;;;;2.13;1.93;;;;;;;21.70;45.32;97309.19;5041956;28;20903;-67
2022/07/28 02:23:27;;;;;;;4.57;1.90;;;;;;;21.71;45.04;97310.00;5065399;28;20425;-66
2022/07/28 02:25:54;;;;;;;4.57;2.07;;;;;;;21.65;45.30;97309.03;5053013;28;20433;-68
2022/07/28 02:28:20;;;;;;;4.20;2.20;;;;;;;21.57;45.16;97304.78;5038404;28;21031;-67
2022/07/28 02:30:51;;;;;;;4.17;2.10;;;;;;;21.51;45.32;97310.16;5061522;28;20432;-68
2022/07/28 02:33:21;;;;;;;3.40;2.23;;;;;;;21.45;45.63;97302.03;5034010;28;20456;-67
2022/07/28 02:35:54;;;;;;;3.20;2.40;;;;;;;21.52;45.35;97296.63;5037489;28;20437;-68
2022/07/28 02:38:23;;;;;;;3.93;2.17;;;;;;;21.48;45.39;97300.75;5040550;28;20460;-66
2022/07/28 02:40:51;;;;;;;2.07;1.87;;;;;;;21.42;45.39;97301.66;5027892;28;20475;-68
2022/07/28 02:43:22;;;;;;;2.20;2.00;;;;;;;21.30;45.59;97297.03;5039097;28;20437;-68
2022/07/28 02:45:51;;;;;;;4.80;2.43;;;;;;;21.31;45.25;97300.53;5037119;28;20433;-67
2022/07/28 02:48:18;;;;;;;3.30;2.03;;;;;;;21.29;45.42;97298.09;5042476;28;20436;-68
2022/07/28 02:50:44;;;;;;;4.23;1.80;;;;;;;21.37;45.74;97298.81;5041949;28;20417;-68
2022/07/28 02:53:11;;;;;;;2.60;2.20;;;;;;;21.35;45.86;97295.56;5060213;28;20801;-68
2022/07/28 02:55:38;;;;;;;6.40;2.33;;;;;;;21.30;45.75;97298.88;5050822;28;20179;-67
2022/07/28 02:58:06;;;;;;;4.90;2.50;;;;;;;21.17;46.10;97297.16;5041530;28;20460;-67
2022/07/28 03:00:32;;;;;;;4.60;1.90;;;;;;;21.19;45.98;97297.75;5026364;28;20417;-67
2022/07/28 03:02:58;;;;;;;4.70;2.40;;;;;;;21.11;46.25;97296.16;5021841;28;20817;-66
2022/07/28 03:05:24;;;;;;;6.63;2.93;;;;;;;21.14;46.22;97294.94;5067345;28;20496;-66
2022/07/28 03:07:51;;;;;;;5.33;2.43;;;;;;;21.20;46.20;97293.25;5035755;28;20195;-67
2022/07/28 03:10:22;;;;;;;3.37;2.67;;;;;;;21.13;46.04;97298.63;5042383;28;20524;-68
2022/07/28 03:12:48;;;;;;;6.63;2.60;;;;;;;21.09;46.31;97292.09;5063953;28;20520;-69
2022/07/28 03:15:14;;;;;;;3.30;2.40;;;;;;;21.09;46.33;97295.59;5068051;28;20463;-67
2022/07/28 03:17:40;;;;;;;4.47;2.37;;;;;;;21.11;46.57;97292.69;5046662;28;22526;-68
2022/07/28 03:20:06;;;;;;;4.60;3.27;;;;;;;21.10;46.07;97296.38;5055348;28;20424;-68
2022/07/28 03:22:32;;;;;;;3.87;2.77;;;;;;;21.00;46.36;97295.03;5049311;28;20179;-68
2022/07/28 03:24:59;;;;;;;3.73;2.50;;;;;;;21.04;46.24;97295.41;5063193;28;20422;-68
2022/07/28 03:27:27;;;;;;;3.43;2.43;;;;;;;21.02;46.67;97303.63;5068272;28;20467;-67
2022/07/28 03:30:07;;;;;;;2.97;2.37;;;;;;;20.93;46.73;97288.94;5043555;28;20519;-69
2022/07/28 03:32:36;;;;;;;2.83;2.50;;;;;;;20.95;46.75;97291.41;5046323;28;21909;-68
2022/07/28 03:35:01;;;;;;;3.53;2.60;;;;;;;20.91;46.79;97300.84;5049478;28;20460;-68
2022/07/28 03:37:37;;;;;;;7.83;2.87;;;;;;;20.91;47.06;97296.34;5038622;28;21194;-67
2022/07/28 03:40:03;;;;;;;6.70;3.63;;;;;;;20.85;47.07;97299.84;5059610;28;20189;-68
2022/07/28 03:42:29;;;;;;;5.70;3.10;;;;;;;20.81;47.28;97295.97;5039940;28;20517;-67
2022/07/28 03:44:55;;;;;;;9.10;3.70;;;;;;;20.86;47.15;97298.84;5063563;28;20794;-68
2022/07/28 03:47:22;;;;;;;4.97;3.03;;;;;;;20.86;47.15;97302.28;5059129;28;20187;-69
2022/07/28 03:49:47;;;;;;;5.03;2.93;;;;;;;20.87;47.08;97303.94;5058375;28;20213;-67
2022/07/28 03:52:13;;;;;;;2.70;2.40;;;;;;;20.83;47.37;97309.91;5059563;28;20457;-67
2022/07/28 03:54:38;;;;;;;3.90;2.30;;;;;;;20.78;47.37;97312.41;5051104;28;20661;-67
2022/07/28 03:57:04;;;;;;;8.23;2.50;;;;;;;20.81;47.25;97304.81;5058390;28;20697;-68
2022/07/28 03:59:29;;;;;;;3.30;2.43;;;;;;;20.77;47.25;97311.59;5059349;28;20203;-68
2022/07/28 04:01:55;;;;;;;6.20;3.10;;;;;;;20.70;47.26;97314.25;5021929;28;20182;-68
2022/07/28 04:04:21;;;;;;;5.30;2.83;;;;;;;20.66;47.45;97314.91;5024434;28;20191;-69
2022/07/28 04:06:47;;;;;;;7.67;2.50;;;;;;;20.71;47.10;97312.44;5028947;28;20205;-68
2022/07/28 04:09:12;;;;;;;3.60;2.63;;;;;;;20.69;47.52;97312.63;5022728;28;20859;-68
2022/07/28 04:11:38;;;;;;;2.93;2.27;;;;;;;20.75;47.47;97323.50;5046409;28;20202;-68
2022/07/28 04:14:03;;;;;;;6.03;2.43;;;;;;;20.67;47.35;97319.22;5027515;28;20191;-67
2022/07/28 04:16:29;;;;;;;8.70;2.63;;;;;;;20.64;48.07;97317.78;5053920;28;20205;-67
2022/07/28 04:18:54;;;;;;;6.73;3.37;;;;;;;20.63;47.65;97328.63;5055832;28;20206;-68
2022/07/28 04:21:21;;;;;;;4.20;2.73;;;;;;;20.64;47.67;97328.44;5065838;28;20228;-68
2022/07/28 04:23:47;;;;;;;2.33;2.13;;;;;;;20.67;47.68;97322.66;5042005;28;20232;-67
2022/07/28 04:26:13;;;;;;;5.17;2.70;;;;;;;20.72;47.84;97322.84;5042358;28;20409;-67
2022/07/28 04:28:38;;;;;;;3.77;2.53;;;;;;;20.79;47.73;97324.69;5059312;28;20466;-69
2022/07/28 04:31:04;;;;;;;6.73;3.13;;;;;;;20.77;47.68;97322.25;5059111;28;20729;-69
2022/07/28 04:33:29;;;;;;;3.97;2.20;;;;;;;20.76;47.68;97319.81;5051986;28;20186;-67
2022/07/28 04:35:55;;;;;;;3.60;2.40;;;;;;;20.75;47.90;97318.16;5040420;28;20722;-69
2022/07/28 04:38:21;;;;;;;3.70;2.70;;;;;;;20.73;47.81;97313.00;5067553;28;20198;-68
2022/07/28 04:40:47;;;;;;;2.70;2.50;;;;;;;20.69;48.10;97315.28;5055396;28;20190;-67
2022/07/28 04:43:12;;;;;;;4.67;2.60;;;;;;;20.70;48.49;97314.25;5055069;28;20543;-68
2022/07/28 04:45:38;;;;;;;4.27;2.57;;;;;;;20.74;48.12;97319.16;5051446;28;20174;-67
2022/07/28 04:48:04;;;;;;;4.57;2.50;;;;;;;20.78;48.01;97317.75;5068436;28;20236;-68
2022/07/28 04:50:29;;;;;;;3.80;2.93;;;;;;;20.84;47.87;97314.19;5061276;28;20668;-69
2022/07/28 04:52:55;;;;;;;3.40;2.50;;;;;;;20.85;47.93;97313.19;5057585;28;20511;-69
2022/07/28 04:55:20;;;;;;;6.10;2.87;;;;;;;20.90;47.64;97309.84;5061552;28;20188;-69
2022/07/28 04:57:46;;;;;;;5.67;2.87;;;;;;;20.86;47.70;97309.47;5058348;28;20203;-70
2022/07/28 05:00:13;;;;;;;3.67;2.43;;;;;;;20.93;47.59;97312.09;5059933;28;20209;-69
2022/07/28 05:02:43;;;;;;;8.83;2.77;;;;;;;20.92;47.16;97313.94;5051487;28;20433;-67
2022/07/28 05:05:09;;;;;;;4.30;2.80;;;;;;;20.98;47.38;97318.41;5065332;28;20425;-69
2022/07/28 05:07:35;;;;;;;4.17;2.70;;;;;;;21.07;46.80;97310.97;5051236;28;20429;-69
2022/07/28 05:10:01;;;;;;;4.73;2.10;;;;;;;21.15;47.26;97312.56;5057108;28;20416;-69
2022/07/28 05:12:27;;;;;;;10.40;3.03;;;;;;;21.21;46.67;97316.19;5066556;28;20429;-69
2022/07/28 05:14:52;;;;;;;4.50;2.20;;;;;;;21.26;46.34;97317.16;5059771;28;20775;-69
2022/07/28 05:17:18;;;;;;;8.70;2.67;;;;;;;21.33;46.63;97319.78;5061067;28;20288;-69
2022/07/28 05:19:43;;;;;;;5.00;3.53;;;;;;;21.38;45.39;97317.25;5058182;28;20194;-69
2022/07/28 05:22:09;;;;;;;6.03;2.70;;;;;;;21.46;46.01;97314.31;5048516;28;20186;-69
2022/07/28 05:24:34;;;;;;;6.33;2.27;;;;;;;21.56;46.26;97316.47;5064103;28;20733;-69
2022/07/28 05:26:59;;;;;;;5.20;2.30;;;;;;;21.59;45.27;97313.41;5051281;28;20321;-68
2022/07/28 05:29:25;;;;;;;5.90;2.50;;;;;;;21.61;45.12;97322.00;5055496;28;20205;-69
2022/07/28 05:31:50;;;;;;;6.13;2.70;;;;;;;21.56;45.17;97316.47;5059123;28;20628;-69
2022/07/28 05:34:16;;;;;;;3.00;2.50;;;;;;;21.67;45.17;97312.28;5057222;28;20340;-68
2022/07/28 05:36:41;;;;;;;3.93;2.40;;;;;;;21.73;44.89;97322.09;5066496;28;20222;-68
2022/07/28 05:39:07;;;;;;;2.13;2.00;;;;;;;21.75;45.01;97322.66;5056327;28;20631;-68
2022/07/28 05:41:32;;;;;;;4.40;2.20;;;;;;;21.89;45.03;97318.03;5055942;28;20245;-67
2022/07/28 05:44:00;;;;;;;7.77;3.00;;;;;;;22.02;44.21;97313.56;5050939;28;20186;-67
2022/07/28 05:46:25;;;;;;;4.60;2.00;;;;;;;22.08;44.11;97310.00;5062326;28;20719;-69
2022/07/28 05:48:51;;;;;;;3.03;1.93;;;;;;;22.16;43.97;97312.38;5057933;28;20442;-68
2022/07/28 05:51:17;;;;;;;7.90;2.30;;;;;;;22.30;44.11;97312.22;5052734;28;20269;-68
2022/07/28 05:53:42;;;;;;;3.53;2.13;;;;;;;22.42;43.48;97313.09;5065583;28;20220;-68
2022/07/28 05:56:08;;;;;;;6.00;2.13;;;;;;;22.58;43.06;97318.81;5054820;28;20183;-68
2022/07/28 05:58:33;;;;;;;2.67;2.07;;;;;;;22.72;42.72;97314.94;5058507;28;20735;-68
2022/07/28 06:01:00;;;;;;;4.30;2.43;;;;;;;22.85;42.21;97306.72;5055267;28;20178;-70
2022/07/28 06:03:27;;;;;;;4.07;1.93;;;;;;;22.95;42.15;97311.50;5023017;28;20187;-68
2022/07/28 06:05:54;;;;;;;2.63;2.20;;;;;;;23.08;42.31;97304.31;5050460;28;20413;-69
2022/07/28 06:08:20;;;;;;;3.57;2.20;;;;;;;23.23;41.73;97309.25;5055333;28;20447;-68
2022/07/28 06:11:01;;;;;;;6.07;2.60;;;;;;;23.37;41.25;97309.84;5066599;28;20924;-68
2022/07/28 06:13:29;;;;;;;9.90;2.73;;;;;;;23.49;40.89;97309.84;5060132;28;20178;-67
2022/07/28 06:15:54;;;;;;;5.87;2.60;;;;;;;23.60;40.72;97303.66;5059891;28;20417;-68
2022/07/28 06:18:21;;;;;;;5.10;2.60;;;;;;;23.71;40.00;97310.84;5047084;28;21005;-68
2022/07/28 06:20:47;;;;;;;5.83;2.80;;;;;;;23.81;40.08;97314.81;5057785;28;20207;-67
2022/07/28 06:23:16;;;;;;;3.93;2.40;;;;;;;23.92;39.83;97309.44;5066302;28;20421;-67
2022/07/28 06:25:41;;;;;;;4.10;2.63;;;;;;;24.01;39.45;97309.91;5058387;28;20468;-67
2022/07/28 06:28:07;;;;;;;6.93;2.57;;;;;;;24.10;39.30;97309.53;5033733;28;20461;-67
2022/07/28 06:30:32;;;;;;;7.00;3.17;;;;;;;24.18;39.05;97306.50;5056325;28;20187;-68
2022/07/28 06:32:57;;;;;;;3.70;2.40;;;;;;;24.28;39.81;97308.53;5061945;28;20209;-68
2022/07/28 06:35:23;;;;;;;7.47;2.30;;;;;;;24.39;39.49;97310.38;5062872;28;20277;-69
2022/07/28 06:37:50;;;;;;;4.13;2.40;;;;;;;24.48;39.33;97311.63;5068347;28;20275;-68
2022/07/28 06:40:17;;;;;;;4.70;2.60;;;;;;;24.63;39.41;97305.72;5058779;28;20320;-68
2022/07/28 06:42:43;;;;;;;4.13;2.63;;;;;;;24.75;38.61;97310.25;5062492;28;20420;-67
2022/07/28 06:45:09;;;;;;;4.63;2.73;;;;;;;24.82;38.28;97309.03;5067677;28;20452;-67
2022/07/28 06:47:36;;;;;;;5.50;2.80;;;;;;;24.92;38.72;97305.72;5065210;28;20768;-66
2022/07/28 06:50:02;;;;;;;4.87;3.10;;;;;;;25.02;38.41;97305.06;5073867;28;20420;-70
2022/07/28 06:52:28;;;;;;;6.10;2.80;;;;;;;25.07;37.86;97301.66;5062786;28;20414;-68
2022/07/28 06:54:53;;;;;;;6.10;2.87;;;;;;;25.13;37.87;97304.19;5057950;28;20467;-66
2022/07/28 06:57:20;;;;;;;8.37;3.73;;;;;;;25.21;38.30;97305.63;5062068;28;20387;-69
2022/07/28 06:59:46;;;;;;;7.40;3.00;;;;;;;25.30;37.74;97309.53;5060460;28;20202;-68
2022/07/28 07:02:12;;;;;;;5.27;3.07;;;;;;;25.37;37.96;97305.88;5047130;28;20413;-68
2022/07/28 07:04:37;;;;;;;6.07;3.57;;;;;;;25.40;38.02;97308.84;5059243;28;20235;-68
2022/07/28 07:07:03;;;;;;;7.30;3.27;;;;;;;25.43;37.82;97295.00;5070033;28;20831;-68
2022/07/28 07:09:28;;;;;;;6.67;3.23;;;;;;;25.48;38.55;97304.97;5063040;28;20772;-68
2022/07/28 07:11:54;;;;;;;4.00;3.27;;;;;;;25.58;38.01;97305.13;5061033;28;20217;-67
2022/07/28 07:14:20;;;;;;;6.23;3.10;;;;;;;25.69;38.19;97299.91;5054310;28;20564;-67
2022/07/28 07:16:45;;;;;;;4.30;3.23;;;;;;;25.75;38.33;97305.09;5062936;28;20572;-68
2022/07/28 07:19:11;;;;;;;3.90;3.50;;;;;;;25.86;37.83;97294.50;5060258;28;20241;-67
2022/07/28 07:21:36;;;;;;;4.63;3.43;;;;;;;25.95;37.82;97289.50;5056213;28;20198;-67
2022/07/28 07:24:02;;;;;;;6.20;3.60;;;;;;;26.01;38.02;97293.88;5064333;28;20175;-68
2022/07/28 07:26:27;;;;;;;5.87;3.60;;;;;;;26.09;37.96;97296.09;5060082;28;20206;-67
2022/07/28 07:28:53;;;;;;;5.77;3.60;;;;;;;26.18;37.78;97291.97;5058381;28;20271;-67
2022/07/28 07:31:18;;;;;;;5.20;3.97;;;;;;;26.24;37.82;97294.69;5061917;28;20332;-67
2022/07/28 07:33:43;;;;;;;10.70;5.47;;;;;;;26.25;37.49;97291.78;5055928;28;20285;-68
2022/07/28 07:36:09;;;;;;;6.70;4.20;;;;;;;26.36;37.22;97292.69;5057156;28;20193;-67
2022/07/28 07:38:34;;;;;;;8.87;4.03;;;;;;;26.45;37.60;97288.50;5057434;28;20202;-68
2022/07/28 07:41:00;;;;;;;6.10;3.80;;;;;;;26.59;37.71;97288.88;5056503;28;20193;-68
2022/07/28 07:43:26;;;;;;;5.60;4.20;;;;;;;26.75;37.51;97283.66;5057053;28;20179;-68
2022/07/28 07:45:51;;;;;;;9.17;4.63;;;;;;;26.90;37.10;97280.31;5073432;28;20181;-68
2022/07/28 07:48:17;;;;;;;8.50;6.70;;;;;;;26.99;36.93;97281.44;5062737;28;20199;-68
2022/07/28 07:50:43;;;;;;;8.03;4.93;;;;;;;27.10;37.37;97291.22;5073041;28;20684;-68
2022/07/28 07:53:09;;;;;;;4.50;4.10;;;;;;;27.18;37.23;97295.31;5074032;28;20268;-69
2022/07/28 07:55:34;;;;;;;11.80;4.60;;;;;;;27.32;37.08;97292.19;5066684;28;20505;-70
2022/07/28 07:58:00;;;;;;;17.90;4.63;;;;;;;27.37;36.95;97286.84;5065067;28;20203;-70
2022/07/28 08:00:25;;;;;;;5.57;4.40;;;;;;;27.50;36.63;97285.59;5043845;28;20654;-69
2022/07/28 08:02:51;;;;;;;7.83;4.23;;;;;;;27.56;37.01;97282.69;5061359;28;20174;-68
2022/07/28 08:05:16;;;;;;;4.63;4.23;;;;;;;27.70;36.78;97285.72;5071396;28;20284;-68
2022/07/28 08:07:42;;;;;;;5.37;3.83;;;;;;;27.84;36.63;97290.63;5065771;28;20938;-67
2022/07/28 08:10:08;;;;;;;7.10;4.00;;;;;;;27.85;35.98;97286.88;5070359;28;20205;-70
2022/07/28 08:12:34;;;;;;;5.17;3.80;;;;;;;27.89;35.94;97288.78;5060203;28;20575;-69
2022/07/28 08:14:59;;;;;;;7.47;5.20;;;;;;;27.95;35.90;97288.78;5056088;28;20220;-68
2022/07/28 08:17:25;;;;;;;5.70;4.40;;;;;;;28.08;36.22;97292.88;5056101;28;20213;-69
2022/07/28 08:19:50;;;;;;;10.13;4.70;;;;;;;28.05;35.92;97295.03;5066084;28;20337;-69
2022/07/28 08:22:16;;;;;;;6.60;4.47;;;;;;;28.10;36.29;97290.78;5041736;28;20187;-68
2022/07/28 08:24:42;;;;;;;3.93;3.43;;;;;;;28.27;36.13;97290.56;5067583;28;20202;-68
2022/07/28 08:27:07;;;;;;;4.50;4.10;;;;;;;28.34;36.24;97285.72;5068984;28;20210;-68
2022/07/28 08:29:33;;;;;;;6.27;4.80;;;;;;;28.46;35.86;97280.09;5060400;28;20206;-69
2022/07/28 08:32:02;;;;;;;6.53;4.30;;;;;;;28.57;35.56;97278.19;5058806;28;20183;-69
2022/07/28 08:34:28;;;;;;;9.33;4.60;;;;;;;28.70;35.66;97271.50;5055320;28;20722;-69
2022/07/28 08:36:54;;;;;;;8.70;3.70;;;;;;;28.79;35.60;97280.69;5057782;28;20828;-67
2022/07/28 08:39:19;;;;;;;5.33;4.37;;;;;;;28.80;35.47;97282.31;5060216;28;20544;-69
2022/07/28 08:41:58;;;;;;;12.93;4.73;;;;;;;28.89;35.24;97278.00;5058123;28;20660;-68
2022/07/28 08:44:27;;;;;;;9.87;4.40;;;;;;;29.01;34.91;97280.44;5060325;28;20277;-70
2022/07/28 08:46:53;;;;;;;5.00;4.40;;;;;;;29.10;35.53;97273.41;5055644;28;20472;-68
2022/07/28 08:49:19;;;;;;;8.23;4.63;;;;;;;29.23;34.82;97280.16;5047942;28;20944;-68
2022/07/28 08:51:46;;;;;;;6.10;4.40;;;;;;;29.30;34.82;97273.66;5034714;28;20266;-70
2022/07/28 08:54:15;;;;;;;7.97;4.63;;;;;;;29.32;34.72;97271.47;5057343;28;20282;-70
2022/07/28 08:56:42;;;;;;;9.60;4.87;;;;;;;29.41;34.44;97275.28;5066218;28;20948;-69
2022/07/28 08:59:08;;;;;;;10.33;5.50;;;;;;;29.41;34.23;97275.28;5059367;28;20474;-68
2022/07/28 09:01:34;;;;;;;7.10;4.80;;;;;;;29.47;34.24;97274.19;5033493;28;20508;-68
2022/07/28 09:04:00;;;;;;;7.83;5.23;;;;;;;29.46;34.57;97267.19;5030318;28;20186;-68
2022/07/28 09:06:25;;;;;;;7.30;4.13;;;;;;;29.63;34.25;97271.44;5025980;28;20189;-68
2022/07/28 09:08:51;;;;;;;5.57;4.63;;;;;;;29.71;34.41;97263.56;5038730;28;20282;-68
2022/07/28 09:11:16;;;;;;;5.23;4.20;;;;;;;29.83;34.32;97270.56;5053688;28;20545;-69
2022/07/28 09:13:42;;;;;;;5.13;4.50;;;;;;;29.86;34.15;97265.44;5044511;28;20179;-68
2022/07/28 09:16:08;;;;;;;8.00;4.43;;;;;;;29.82;34.39;97269.75;5056943;28;20183;-68
2022/07/28 09:18:33;;;;;;;7.20;4.43;;;;;;;29.83;34.37;97265.97;5058272;28;20871;-68
2022/07/28 09:20:59;;;;;;;8.23;4.57;;;;;;;29.84;34.38;97261.38;5056636;28;20752;-68
2022/07/28 09:23:24;;;;;;;8.13;4.30;;;;;;;29.93;34.73;97261.59;5063083;28;20186;-70
2022/07/28 09:25:50;;;;;;;12.10;4.90;;;;;;;30.14;33.91;97260.44;5058978;28;20638;-69
2022/07/28 09:28:17;;;;;;;7.00;5.03;;;;;;;30.20;33.89;97258.53;5064461;28;20202;-69
2022/07/28 09:30:45;;;;;;;6.17;4.10;;;;;;;30.25;33.87;97263.09;5060186;28;20182;-69
2022/07/28 09:33:21;;;;;;;7.30;5.20;;;;;;;30.37;34.32;97257.34;5053566;28;20785;-69
2022/07/28 09:35:55;;;;;;;10.00;4.80;;;;;;;30.52;33.84;97253.72;5040573;28;20853;-70
2022/07/28 09:38:22;;;;;;;5.30;4.67;;;;;;;30.68;33.37;97252.56;5054393;28;20470;-69
2022/07/28 09:40:58;;;;;;;6.40;4.77;;;;;;;30.86;33.34;97250.28;5051408;28;20414;-70
2022/07/28 09:43:36;;;;;;;9.77;4.67;;;;;;;31.04;32.99;97248.75;5048975;28;20425;-69
2022/07/28 09:46:13;;;;;;;9.53;4.60;;;;;;;31.03;32.51;97247.94;5054102;28;20847;-68
2022/07/28 09:48:47;;;;;;;7.83;4.90;;;;;;;30.99;32.91;97252.31;5060727;28;20462;-70
2022/07/28 09:51:14;;;;;;;5.90;4.60;;;;;;;30.95;32.96;97243.16;5054110;28;20853;-70
2022/07/28 09:53:40;;;;;;;6.87;4.13;;;;;;;31.00;33.22;97243.09;5055699;28;20545;-69
2022/07/28 09:56:06;;;;;;;10.50;4.87;;;;;;;31.12;32.72;97231.94;5054529;28;20512;-69
2022/07/28 09:58:31;;;;;;;5.13;4.00;;;;;;;31.34;32.29;97225.19;5055813;28;20895;-69
2022/07/28 10:01:11;;;;;;;5.90;4.00;;;;;;;31.53;32.65;97233.38;5052487;28;20222;-70
2022/07/28 10:03:38;;;;;;;5.63;4.10;;;;;;;31.67;32.25;97230.81;5056548;28;20209;-68
2022/07/28 10:06:06;;;;;;;4.47;4.07;;;;;;;31.69;31.92;97226.72;5060157;28;20853;-69
2022/07/28 10:08:45;;;;;;;4.97;4.40;;;;;;;31.90;32.12;97226.47;5056924;28;20898;-69
2022/07/28 10:11:13;;;;;;;6.20;4.53;;;;;;;31.75;32.00;97216.63;5062513;28;20439;-69
2022/07/28 10:13:51;;;;;;;4.93;4.33;;;;;;;31.70;32.03;97227.53;5054055;28;20433;-69
2022/07/28 10:16:17;;;;;;;4.53;4.00;;;;;;;31.55;32.14;97221.19;5060457;28;20463;-70
2022/07/28 10:18:43;;;;;;;5.23;4.17;;;;;;;31.45;32.47;97223.19;5052964;28;20466;-69
2022/07/28 10:21:12;;;;;;;4.97;4.50;;;;;;;31.25;32.46;97222.34;5062487;28;20436;-70
2022/07/28 10:23:38;;;;;;;7.87;4.07;;;;;;;31.14;32.71;97220.81;5063674;28;20417;-69
2022/07/28 10:26:13;;;;;;;4.63;4.17;;;;;;;31.38;32.80;97223.53;5057781;28;20507;-71
2022/07/28 10:28:45;;;;;;;5.73;4.20;;;;;;;31.45;32.89;97215.06;5051338;28;20417;-69
2022/07/28 10:31:13;;;;;;;5.73;3.93;;;;;;;31.64;32.49;97212.41;5041982;28;20432;-69
2022/07/28 10:33:43;;;;;;;5.17;4.03;;;;;;;31.87;32.13;97213.53;5058904;28;20512;-70
2022/07/28 10:36:09;;;;;;;7.57;4.20;;;;;;;31.92;31.76;97212.66;5037749;28;20517;-71
2022/07/28 10:38:35;;;;;;;5.23;4.50;;;;;;;31.92;31.87;97197.19;5057912;28;21065;-69
2022/07/28 10:41:02;;;;;;;4.23;3.93;;;;;;;31.91;31.64;97206.41;5062572;28;20961;-69
2022/07/28 10:43:30;;;;;;;4.83;4.30;;;;;;;32.00;31.60;97206.56;5057211;28;20429;-71
2022/07/28 10:45:57;;;;;;;6.00;3.90;;;;;;;32.16;31.24;97202.53;5036152;28;20430;-70
2022/07/28 10:48:24;;;;;;;5.07;4.33;;;;;;;32.28;31.42;97199.41;5066868;28;20450;-71
2022/07/28 10:50:50;;;;;;;6.67;4.47;;;;;;;32.12;31.13;97200.72;5058954;28;20478;-69
2022/07/28 10:53:32;;;;;;;5.67;3.70;;;;;;;31.90;32.08;97199.38;5055667;28;20448;-70
2022/07/28 10:56:06;;;;;;;7.07;4.03;;;;;;;31.98;32.15;97195.19;5055242;28;20994;-70
2022/07/28 10:58:46;;;;;;;13.07;4.20;;;;;;;31.94;31.55;97205.81;5040724;28;20465;-70
2022/07/28 11:01:32;;;;;;;5.10;3.93;;;;;;;31.92;31.00;97197.19;5039822;28;20421;-68
2022/07/28 11:03:57;;;;;;;4.50;4.07;;;;;;;31.80;31.10;97196.81;5062527;28;20548;-76
2022/07/28 11:06:32;;;;;;;6.47;4.37;;;;;;;31.52;31.13;97200.09;5067272;28;20923;-71
2022/07/28 11:09:17;;;;;;;6.57;4.43;;;;;;;31.44;31.45;97197.22;5056362;28;20669;-70
2022/07/28 11:11:48;;;;;;;9.00;4.13;;;;;;;31.33;32.07;97201.94;5047502;28;20471;-71
2022/07/28 11:14:23;;;;;;;5.43;3.67;;;;;;;31.26;32.22;97196.88;5065546;28;20460;-69
2022/07/28 11:17:04;;;;;;;8.30;3.57;;;;;;;31.46;31.62;97195.03;5066720;28;20438;-70
2022/07/28 11:19:44;;;;;;;4.17;3.80;;;;;;;31.54;32.37;97188.97;5061964;28;20440;-70
2022/07/28 11:22:17;;;;;;;9.20;4.30;;;;;;;31.46;31.88;97193.13;5060285;28;20416;-70
2022/07/28 11:25:01;;;;;;;8.53;4.37;;;;;;;31.43;32.06;97179.38;5062136;28;20442;-68
2022/07/28 11:27:41;;;;;;;4.20;3.80;;;;;;;31.57;31.89;97182.97;5057773;28;20507;-69
2022/07/28 11:30:31;;;;;;;8.13;3.90;;;;;;;31.66;31.62;97189.34;5044376;28;20436;-69
2022/07/28 11:32:59;;;;;;;7.40;4.17;;;;;;;31.61;30.89;97188.63;5039943;28;20420;-68
2022/07/28 11:35:26;;;;;;;5.80;3.93;;;;;;;31.46;31.17;97178.78;5040023;28;20433;-70
2022/07/28 11:38:01;;;;;;;4.77;4.27;;;;;;;31.50;31.21;97180.63;5060406;28;20519;-69
2022/07/28 11:40:53;;;;;;;6.63;3.70;;;;;;;31.44;31.78;97189.91;5055076;28;20417;-70